createdAt,value
2023-05-01T00:00:53.912Z,9.38
2023-05-01T00:03:21.021Z,8.13
2023-05-01T00:05:48.367Z,8.55
2023-05-01T00:08:16.045Z,8.73
2023-05-01T00:10:42.931Z,8.93
2023-05-01T00:13:10.120Z,9.25
2023-05-01T00:15:36.870Z,8.68
2023-05-01T00:18:03.907Z,8.35
2023-05-01T00:20:31.138Z,8.00
2023-05-01T00:22:58.156Z,9.18
2023-05-01T00:25:24.973Z,8.80
2023-05-01T00:27:52.030Z,9.15
2023-05-01T00:30:18.746Z,9.30
2023-05-01T00:32:45.816Z,9.05
2023-05-01T00:35:13.378Z,8.48
2023-05-01T00:37:40.497Z,8.88
2023-05-01T00:40:08.117Z,9.55
2023-05-01T00:42:36.316Z,9.65
2023-05-01T00:45:04.088Z,8.95
2023-05-01T00:47:31.171Z,9.40
2023-05-01T00:49:58.203Z,9.32
2023-05-01T00:52:25.937Z,10.98
2023-05-01T00:54:52.676Z,10.93
2023-05-01T00:57:22.892Z,10.60
2023-05-01T00:59:49.622Z,10.27
2023-05-01T01:02:16.626Z,10.70
2023-05-01T01:04:44.867Z,10.10
2023-05-01T01:07:21.497Z,10.93
2023-05-01T01:10:03.337Z,11.13
2023-05-01T01:13:01.411Z,11.30
2023-05-01T01:15:35.428Z,11.88
2023-05-01T01:18:12.699Z,11.68
2023-05-01T01:21:06.993Z,11.30
2023-05-01T01:23:40.167Z,12.15
2023-05-01T01:26:25.094Z,11.40
2023-05-01T01:29:36.783Z,11.15
2023-05-01T01:32:10.953Z,12.13
2023-05-01T01:35:01.038Z,11.65
2023-05-01T01:37:37.239Z,10.57
2023-05-01T01:40:09.928Z,11.68
2023-05-01T01:42:38.688Z,10.75
2023-05-01T01:45:10.879Z,10.98
2023-05-01T01:47:37.708Z,11.10
2023-05-01T01:50:05.511Z,11.75
2023-05-01T01:52:33.862Z,12.98
2023-05-01T01:55:05.282Z,11.88
2023-05-01T01:57:32.100Z,12.02
2023-05-01T01:59:59.154Z,11.23
2023-05-01T02:02:27.238Z,12.32
2023-05-01T02:04:56.745Z,11.52
2023-05-01T02:07:23.505Z,12.60
2023-05-01T02:09:50.870Z,12.43
2023-05-01T02:12:18.321Z,11.93
2023-05-01T02:14:45.389Z,12.93
2023-05-01T02:17:12.085Z,12.93
2023-05-01T02:19:40.534Z,12.20
2023-05-01T02:22:07.688Z,12.57
2023-05-01T02:24:34.872Z,12.55
2023-05-01T02:27:06.504Z,11.95
2023-05-01T02:29:34.202Z,12.93
2023-05-01T02:32:01.332Z,11.43
2023-05-01T02:34:28.375Z,12.73
2023-05-01T02:36:55.119Z,13.07
2023-05-01T02:39:22.414Z,13.63
2023-05-01T02:41:49.296Z,11.68
2023-05-01T02:44:16.298Z,11.93
2023-05-01T02:46:44.904Z,11.70
2023-05-01T02:49:11.916Z,12.48
2023-05-01T02:51:38.627Z,13.23
2023-05-01T02:54:05.661Z,12.85
2023-05-01T02:56:32.661Z,13.00
2023-05-01T02:58:59.718Z,13.23
2023-05-01T03:01:27.938Z,12.48
2023-05-01T03:03:55.088Z,12.35
2023-05-01T03:06:21.961Z,11.88
2023-05-01T03:08:49.006Z,11.70
2023-05-01T03:11:15.801Z,13.18
2023-05-01T03:13:43.673Z,10.95
2023-05-01T03:16:10.469Z,12.82
2023-05-01T03:18:37.535Z,12.23
2023-05-01T03:21:04.374Z,11.68
2023-05-01T03:23:31.525Z,12.20
2023-05-01T03:25:58.973Z,12.60
2023-05-01T03:28:26.020Z,11.93
2023-05-01T03:30:53.354Z,12.52
2023-05-01T03:33:20.405Z,11.80
2023-05-01T03:35:48.004Z,11.90
2023-05-01T03:38:15.270Z,12.38
2023-05-01T03:40:42.063Z,12.27
2023-05-01T03:43:09.065Z,13.40
2023-05-01T03:45:35.759Z,12.52
2023-05-01T03:48:02.861Z,13.15
2023-05-01T03:50:29.581Z,12.48
2023-05-01T03:52:56.610Z,13.70
2023-05-01T03:55:23.347Z,11.73
2023-05-01T03:57:50.798Z,11.82
2023-05-01T04:00:17.566Z,13.15
2023-05-01T04:02:44.663Z,12.10
2023-05-01T04:05:11.486Z,12.10
2023-05-01T04:07:38.543Z,13.00
2023-05-01T04:10:07.233Z,12.35
2023-05-01T04:12:34.307Z,11.50
2023-05-01T04:15:01.150Z,13.00
2023-05-01T04:17:28.176Z,12.52
2023-05-01T04:19:55.454Z,12.15
2023-05-01T04:22:23.414Z,11.85
2023-05-01T04:24:50.306Z,11.80
2023-05-01T04:27:17.876Z,12.20
2023-05-01T04:29:44.561Z,12.55
2023-05-01T04:32:11.971Z,12.63
2023-05-01T04:34:38.889Z,12.20
2023-05-01T04:37:07.845Z,13.43
2023-05-01T04:39:36.315Z,13.10
2023-05-01T04:42:03.991Z,11.63
2023-05-01T04:44:31.070Z,13.40
2023-05-01T04:46:58.232Z,12.82
2023-05-01T04:49:24.944Z,12.55
2023-05-01T04:51:52.026Z,11.95
2023-05-01T04:54:18.769Z,12.65
2023-05-01T04:56:45.804Z,12.07
2023-05-01T04:59:12.500Z,13.15
2023-05-01T05:01:39.598Z,12.00
2023-05-01T05:04:06.569Z,12.27
2023-05-01T05:06:33.790Z,10.77
2023-05-01T05:09:00.546Z,12.60
2023-05-01T05:11:27.783Z,13.98
2023-05-01T05:13:54.510Z,11.80
2023-05-01T05:16:21.626Z,12.48
2023-05-01T05:18:48.392Z,12.70
2023-05-01T05:21:15.391Z,11.73
2023-05-01T05:23:42.151Z,12.07
2023-05-01T05:26:09.176Z,11.73
2023-05-01T05:28:35.885Z,12.63
2023-05-01T05:31:02.911Z,11.77
2023-05-01T05:33:29.969Z,12.15
2023-05-01T05:35:58.633Z,12.57
2023-05-01T05:38:25.360Z,11.02
2023-05-01T05:40:54.214Z,11.82
2023-05-01T05:43:21.133Z,11.43
2023-05-01T05:45:48.162Z,11.60
2023-05-01T05:48:15.034Z,11.20
2023-05-01T05:50:42.078Z,11.18
2023-05-01T05:53:09.982Z,11.48
2023-05-01T05:55:36.986Z,11.10
2023-05-01T05:58:03.690Z,10.15
2023-05-01T06:00:30.918Z,10.77
2023-05-01T06:02:58.077Z,10.23
2023-05-01T06:05:25.264Z,10.90
2023-05-01T06:07:52.070Z,9.68
2023-05-01T06:10:19.388Z,9.25
2023-05-01T06:12:53.729Z,8.75
2023-05-01T06:15:29.603Z,9.90
2023-05-01T06:17:56.788Z,8.70
2023-05-01T06:20:23.820Z,9.68
2023-05-01T06:22:50.671Z,8.68
2023-05-01T06:25:17.767Z,8.25
2023-05-01T06:27:44.469Z,8.27
2023-05-01T06:30:11.733Z,8.68
2023-05-01T06:32:38.484Z,8.95
2023-05-01T06:35:06.315Z,7.18
2023-05-01T06:37:33.053Z,8.05
2023-05-01T06:40:00.361Z,7.18
2023-05-01T06:42:27.077Z,6.72
2023-05-01T06:44:54.098Z,7.03
2023-05-01T06:47:21.498Z,7.15
2023-05-01T06:49:48.776Z,6.35
2023-05-01T06:52:15.463Z,6.63
2023-05-01T06:54:42.528Z,6.20
2023-05-01T06:57:09.250Z,6.38
2023-05-01T06:59:36.440Z,6.50
2023-05-01T07:02:03.176Z,5.05
2023-05-01T07:04:31.464Z,6.10
2023-05-01T07:06:58.204Z,5.22
2023-05-01T07:09:25.463Z,5.40
2023-05-01T07:11:52.227Z,5.35
2023-05-01T07:14:19.198Z,4.95
2023-05-01T07:16:46.728Z,4.10
2023-05-01T07:19:14.019Z,5.03
2023-05-01T07:21:41.365Z,4.95
2023-05-01T07:24:08.424Z,4.30
2023-05-01T07:26:35.262Z,3.97
2023-05-01T07:29:02.311Z,3.88
2023-05-01T07:31:29.006Z,3.95
2023-05-01T07:33:56.749Z,3.65
2023-05-01T07:36:24.056Z,3.67
2023-05-01T07:38:51.042Z,3.65
2023-05-01T07:41:17.847Z,3.67
2023-05-01T07:43:44.833Z,3.45
2023-05-01T07:46:11.666Z,3.22
2023-05-01T07:48:39.104Z,3.20
2023-05-01T07:51:05.992Z,3.00
2023-05-01T07:53:33.230Z,3.65
2023-05-01T07:56:09.772Z,2.80
2023-05-01T07:58:37.212Z,3.00
2023-05-01T08:01:04.053Z,3.13
2023-05-01T08:03:31.442Z,3.47
2023-05-01T08:05:58.494Z,3.00
2023-05-01T08:08:25.544Z,3.08
2023-05-01T08:10:52.661Z,2.83
2023-05-01T08:13:19.650Z,2.63
2023-05-01T08:15:47.213Z,2.97
2023-05-01T08:18:20.230Z,2.85
2023-05-01T08:20:50.712Z,3.42
2023-05-01T08:23:17.814Z,2.85
2023-05-01T08:25:46.946Z,3.10
2023-05-01T08:28:14.753Z,2.60
2023-05-01T08:30:41.532Z,3.65
2023-05-01T08:33:08.429Z,2.92
2023-05-01T08:35:35.578Z,3.08
2023-05-01T08:38:02.292Z,2.90
2023-05-01T08:40:31.977Z,2.78
2023-05-01T08:43:00.689Z,2.92
2023-05-01T08:45:27.844Z,3.15
2023-05-01T08:47:55.127Z,2.60
2023-05-01T08:50:22.807Z,3.08
2023-05-01T08:52:50.941Z,2.95
2023-05-01T08:55:17.976Z,3.00
2023-05-01T08:57:48.224Z,3.03
2023-05-01T09:00:19.164Z,3.08
2023-05-01T09:02:47.167Z,3.33
2023-05-01T09:05:18.373Z,2.90
2023-05-01T09:07:48.014Z,2.65
2023-05-01T09:10:19.065Z,2.78
2023-05-01T09:12:47.752Z,2.60
2023-05-01T09:15:15.025Z,2.58
2023-05-01T09:17:42.174Z,2.20
2023-05-01T09:20:09.975Z,1.98
2023-05-01T09:22:36.915Z,2.58
2023-05-01T09:25:04.408Z,2.15
2023-05-01T09:27:35.312Z,2.10
2023-05-01T09:30:02.572Z,2.50
2023-05-01T09:32:29.423Z,2.75
2023-05-01T09:35:09.396Z,2.65
2023-05-01T09:37:36.643Z,2.10
2023-05-01T09:40:14.309Z,2.35
2023-05-01T09:42:51.502Z,2.60
2023-05-01T09:45:19.291Z,2.42
2023-05-01T09:47:46.332Z,2.03
2023-05-01T09:50:35.110Z,2.50
2023-05-01T09:53:02.769Z,2.30
2023-05-01T09:55:30.114Z,2.38
2023-05-01T09:57:58.768Z,1.88
2023-05-01T10:00:27.315Z,2.20
2023-05-01T10:02:54.161Z,2.25
2023-05-01T10:05:21.447Z,2.47
2023-05-01T10:08:02.480Z,1.83
2023-05-01T10:10:29.740Z,2.65
2023-05-01T10:12:56.612Z,1.88
2023-05-01T10:15:26.965Z,2.22
2023-05-01T10:17:54.313Z,2.70
2023-05-01T10:20:21.861Z,2.92
2023-05-01T10:22:49.197Z,2.20
2023-05-01T10:25:16.803Z,1.98
2023-05-01T10:27:43.617Z,2.05
2023-05-01T10:30:11.293Z,2.05
2023-05-01T10:32:38.274Z,1.83
2023-05-01T10:35:12.668Z,2.38
2023-05-01T10:37:48.717Z,2.33
2023-05-01T10:40:41.039Z,2.05
2023-05-01T10:43:18.045Z,2.40
2023-05-01T10:45:45.706Z,2.30
2023-05-01T10:48:12.898Z,2.65
2023-05-01T10:51:20.462Z,2.30
2023-05-01T10:54:13.094Z,2.30
2023-05-01T10:56:41.573Z,2.15
2023-05-01T10:59:09.129Z,2.40
2023-05-01T11:01:45.110Z,2.20
2023-05-01T11:04:24.805Z,2.42
2023-05-01T11:07:11.186Z,2.08
2023-05-01T11:09:54.280Z,2.50
2023-05-01T11:12:46.403Z,2.10
2023-05-01T11:15:25.042Z,2.25
2023-05-01T11:17:52.479Z,2.58
2023-05-01T11:20:25.156Z,2.33
2023-05-01T11:22:53.154Z,2.15
2023-05-01T11:25:33.225Z,2.42
2023-05-01T11:28:01.842Z,2.20
2023-05-01T11:30:41.245Z,2.20
2023-05-01T11:33:10.645Z,2.22
2023-05-01T11:35:39.099Z,2.17
2023-05-01T11:38:06.203Z,2.10
2023-05-01T11:40:34.425Z,2.28
2023-05-01T11:43:05.296Z,2.03
2023-05-01T11:45:32.202Z,2.10
2023-05-01T11:48:01.322Z,2.08
2023-05-01T11:50:37.568Z,2.17
2023-05-01T11:53:08.778Z,2.00
2023-05-01T11:55:35.783Z,2.08
2023-05-01T11:58:04.965Z,1.90
2023-05-01T12:00:33.865Z,1.75
2023-05-01T12:03:14.578Z,2.33
2023-05-01T12:05:45.374Z,1.52
2023-05-01T12:08:19.365Z,2.20
2023-05-01T12:10:56.231Z,2.05
2023-05-01T12:13:23.704Z,2.65
2023-05-01T12:15:54.498Z,3.03
2023-05-01T12:18:21.984Z,3.65
2023-05-01T12:20:53.020Z,4.78
2023-05-01T12:23:31.684Z,4.55
2023-05-01T12:25:58.446Z,5.13
2023-05-01T12:28:27.421Z,5.68
2023-05-01T12:30:57.740Z,5.13
2023-05-01T12:33:24.732Z,5.50
2023-05-01T12:35:51.680Z,5.20
2023-05-01T12:38:22.573Z,4.88
2023-05-01T12:40:53.801Z,4.88
2023-05-01T12:43:21.775Z,4.25
2023-05-01T12:45:53.399Z,3.90
2023-05-01T12:48:20.775Z,4.30
2023-05-01T12:50:54.312Z,4.40
2023-05-01T12:53:23.283Z,4.18
2023-05-01T12:55:51.839Z,4.15
2023-05-01T12:58:19.056Z,4.18
2023-05-01T13:00:46.718Z,3.75
2023-05-01T13:03:16.982Z,4.00
2023-05-01T13:06:00.331Z,3.00
2023-05-01T13:08:31.129Z,3.33
2023-05-01T13:11:00.392Z,3.30
2023-05-01T13:13:31.744Z,3.17
2023-05-01T13:16:12.364Z,3.15
2023-05-01T13:18:49.954Z,2.90
2023-05-01T13:21:21.821Z,2.90
2023-05-01T13:23:56.269Z,3.10
2023-05-01T13:26:31.480Z,2.67
2023-05-01T13:29:00.047Z,2.92
2023-05-01T13:31:26.923Z,3.13
2023-05-01T13:33:54.673Z,2.63
2023-05-01T13:36:25.793Z,3.00
2023-05-01T13:38:56.224Z,2.92
2023-05-01T13:41:25.799Z,2.42
2023-05-01T13:43:54.092Z,2.65
2023-05-01T13:46:22.847Z,2.80
2023-05-01T13:48:50.122Z,2.67
2023-05-01T13:51:26.451Z,2.58
2023-05-01T13:53:54.248Z,2.55
2023-05-01T13:56:21.926Z,2.65
2023-05-01T13:58:50.376Z,2.35
2023-05-01T14:01:19.023Z,2.50
2023-05-01T14:03:46.371Z,2.38
2023-05-01T14:06:14.065Z,2.20
2023-05-01T14:08:41.189Z,2.22
2023-05-01T14:11:08.287Z,2.35
2023-05-01T14:13:45.546Z,2.65
2023-05-01T14:16:22.277Z,2.30
2023-05-01T14:18:49.372Z,2.53
2023-05-01T14:21:17.230Z,2.60
2023-05-01T14:23:44.335Z,2.30
2023-05-01T14:26:11.691Z,2.47
2023-05-01T14:28:41.585Z,2.75
2023-05-01T14:31:08.776Z,2.58
2023-05-01T14:33:41.664Z,2.22
2023-05-01T14:36:08.369Z,2.50
2023-05-01T14:38:39.356Z,2.63
2023-05-01T14:41:06.440Z,3.03
2023-05-01T14:43:33.828Z,2.63
2023-05-01T14:46:00.733Z,2.53
2023-05-01T14:48:35.199Z,3.08
2023-05-01T14:51:07.320Z,2.40
2023-05-01T14:53:34.322Z,2.53
2023-05-01T14:56:01.074Z,2.55
2023-05-01T14:58:28.105Z,2.60
2023-05-01T15:00:55.257Z,2.50
2023-05-01T15:03:22.427Z,2.33
2023-05-01T15:05:49.247Z,2.10
2023-05-01T15:08:16.726Z,2.35
2023-05-01T15:10:44.993Z,2.55
2023-05-01T15:13:12.276Z,2.97
2023-05-01T15:15:38.986Z,2.65
2023-05-01T15:18:06.485Z,2.45
2023-05-01T15:20:33.175Z,3.30
2023-05-01T15:23:00.229Z,2.95
2023-05-01T15:25:27.029Z,2.63
2023-05-01T15:27:54.622Z,2.60
2023-05-01T15:30:21.550Z,2.35
2023-05-01T15:32:48.698Z,2.88
2023-05-01T15:35:16.595Z,2.70
2023-05-01T15:37:43.662Z,2.85
2023-05-01T15:40:10.550Z,2.95
2023-05-01T15:42:37.632Z,2.45
2023-05-01T15:45:04.802Z,3.13
2023-05-01T15:47:31.958Z,2.58
2023-05-01T15:49:58.888Z,2.42
2023-05-01T15:52:27.153Z,2.70
2023-05-01T15:54:54.977Z,2.60
2023-05-01T15:57:22.032Z,2.88
2023-05-01T15:59:53.879Z,2.72
2023-05-01T16:02:21.711Z,2.75
2023-05-01T16:04:48.838Z,2.90
2023-05-01T16:07:16.002Z,3.30
2023-05-01T16:09:42.978Z,3.45
2023-05-01T16:12:10.107Z,3.35
2023-05-01T16:14:39.369Z,3.72
2023-05-01T16:17:06.670Z,3.38
2023-05-01T16:19:33.655Z,3.60
2023-05-01T16:22:03.281Z,3.13
2023-05-01T16:24:36.777Z,3.65
2023-05-01T16:27:03.983Z,3.65
2023-05-01T16:29:34.448Z,3.33
2023-05-01T16:32:03.477Z,3.33
2023-05-01T16:34:30.237Z,3.65
2023-05-01T16:36:57.364Z,3.60
2023-05-01T16:39:24.326Z,2.85
2023-05-01T16:41:52.695Z,3.30
2023-05-01T16:44:20.533Z,3.45
2023-05-01T16:46:58.580Z,3.38
2023-05-01T16:49:27.614Z,3.10
2023-05-01T16:51:58.718Z,3.38
2023-05-01T16:54:31.993Z,3.80
2023-05-01T16:56:59.418Z,3.20
2023-05-01T16:59:28.064Z,3.22
2023-05-01T17:01:55.368Z,4.38
2023-05-01T17:04:22.346Z,4.00
2023-05-01T17:06:49.618Z,3.45
2023-05-01T17:09:16.537Z,3.75
2023-05-01T17:11:43.587Z,3.90
2023-05-01T17:14:10.395Z,3.85
2023-05-01T17:16:37.435Z,3.88
2023-05-01T17:19:08.800Z,3.90
2023-05-01T17:21:36.138Z,3.50
2023-05-01T17:24:03.203Z,3.90
2023-05-01T17:26:30.258Z,3.95
2023-05-01T17:28:57.488Z,3.72
2023-05-01T17:31:24.654Z,3.33
2023-05-01T17:33:51.449Z,3.30
2023-05-01T17:36:18.418Z,3.80
2023-05-01T17:38:45.292Z,4.10
2023-05-01T17:41:12.358Z,4.05
2023-05-01T17:43:39.201Z,4.45
2023-05-01T17:46:06.549Z,3.75
2023-05-01T17:48:33.332Z,4.20
2023-05-01T17:51:00.429Z,4.38
2023-05-01T17:53:27.329Z,3.95
2023-05-01T17:55:54.385Z,4.70
2023-05-01T17:58:21.346Z,4.22
2023-05-01T18:00:48.577Z,5.00
2023-05-01T18:03:15.536Z,4.38
2023-05-01T18:05:42.937Z,4.55
2023-05-01T18:08:09.691Z,5.70
2023-05-01T18:10:36.770Z,6.53
2023-05-01T18:13:03.600Z,8.75
2023-05-01T18:15:30.780Z,8.38
2023-05-01T18:17:57.589Z,7.85
2023-05-01T18:20:24.895Z,9.70
2023-05-01T18:22:54.185Z,10.15
2023-05-01T18:25:21.327Z,10.48
2023-05-01T18:27:49.194Z,9.73
2023-05-01T18:30:16.959Z,8.57
2023-05-01T18:32:47.381Z,8.98
2023-05-01T18:35:17.104Z,9.60
2023-05-01T18:37:44.443Z,9.75
2023-05-01T18:40:12.646Z,9.75
2023-05-01T18:42:42.772Z,9.70
2023-05-01T18:45:10.265Z,9.80
2023-05-01T18:47:37.096Z,9.63
2023-05-01T18:50:05.704Z,10.48
2023-05-01T18:52:32.803Z,9.20
2023-05-01T18:54:59.925Z,10.07
2023-05-01T18:57:28.704Z,8.95
2023-05-01T18:59:55.867Z,8.93
2023-05-01T19:02:22.953Z,9.18
2023-05-01T19:04:57.575Z,9.30
2023-05-01T19:07:26.695Z,10.40
2023-05-01T19:09:53.932Z,8.68
2023-05-01T19:12:20.871Z,9.32
2023-05-01T19:14:48.079Z,9.35
2023-05-01T19:17:14.897Z,9.30
2023-05-01T19:19:42.190Z,9.80
2023-05-01T19:22:09.038Z,10.30
2023-05-01T19:24:36.968Z,9.45
2023-05-01T19:27:03.899Z,9.43
2023-05-01T19:29:31.820Z,9.60
2023-05-01T19:32:00.308Z,8.93
2023-05-01T19:34:28.051Z,9.65
2023-05-01T19:37:00.449Z,9.68
2023-05-01T19:39:29.132Z,9.30
2023-05-01T19:41:55.990Z,10.02
2023-05-01T19:44:23.145Z,9.50
2023-05-01T19:46:49.968Z,8.95
2023-05-01T19:49:18.260Z,9.73
2023-05-01T19:51:46.430Z,9.40
2023-05-01T19:54:15.464Z,9.23
2023-05-01T19:56:42.494Z,10.25
2023-05-01T19:59:10.048Z,10.32
2023-05-01T20:01:38.829Z,9.32
2023-05-01T20:04:06.090Z,10.18
2023-05-01T20:06:34.203Z,10.98
2023-05-01T20:09:01.383Z,9.88
2023-05-01T20:11:28.200Z,10.98
2023-05-01T20:13:55.342Z,11.00
2023-05-01T20:16:22.519Z,10.30
2023-05-01T20:18:49.650Z,11.05
2023-05-01T20:21:16.495Z,10.93
2023-05-01T20:23:45.220Z,10.25
2023-05-01T20:26:12.252Z,11.15
2023-05-01T20:28:39.444Z,11.20
2023-05-01T20:31:06.269Z,10.35
2023-05-01T20:33:33.400Z,10.65
2023-05-01T20:36:01.865Z,11.10
2023-05-01T20:38:29.027Z,11.00
2023-05-01T20:40:55.928Z,11.00
2023-05-01T20:43:23.065Z,11.73
2023-05-01T20:45:49.904Z,12.00
2023-05-01T20:48:16.958Z,10.75
2023-05-01T20:50:45.541Z,11.23
2023-05-01T20:53:12.583Z,11.30
2023-05-01T20:55:39.379Z,11.23
2023-05-01T20:58:07.299Z,10.82
2023-05-01T21:00:34.113Z,11.32
2023-05-01T21:03:01.543Z,11.32
2023-05-01T21:05:28.364Z,10.90
2023-05-01T21:07:56.760Z,11.50
2023-05-01T21:10:23.812Z,10.80
2023-05-01T21:12:51.166Z,11.95
2023-05-01T21:15:18.006Z,11.63
2023-05-01T21:17:45.120Z,12.02
2023-05-01T21:20:19.290Z,12.48
2023-05-01T21:22:48.599Z,12.10
2023-05-01T21:25:19.912Z,10.88
2023-05-01T21:27:46.940Z,10.65
2023-05-01T21:30:15.119Z,11.15
2023-05-01T21:32:42.562Z,11.57
2023-05-01T21:35:11.537Z,11.52
2023-05-01T21:37:40.126Z,11.75
2023-05-01T21:40:07.542Z,12.32
2023-05-01T21:42:35.759Z,11.45
2023-05-01T21:45:06.917Z,11.95
2023-05-01T21:47:38.256Z,11.75
2023-05-01T21:50:06.701Z,10.73
2023-05-01T21:52:34.713Z,10.80
2023-05-01T21:55:03.606Z,11.23
2023-05-01T21:57:31.696Z,11.77
2023-05-01T22:00:01.282Z,11.15
2023-05-01T22:02:31.476Z,11.55
2023-05-01T22:04:58.597Z,11.90
2023-05-01T22:07:25.845Z,12.45
2023-05-01T22:09:52.643Z,11.07
2023-05-01T22:12:20.097Z,12.65
2023-05-01T22:14:47.862Z,11.43
2023-05-01T22:17:15.072Z,11.35
2023-05-01T22:19:42.157Z,11.60
2023-05-01T22:22:09.208Z,11.90
2023-05-01T22:24:36.260Z,11.57
2023-05-01T22:27:03.366Z,11.77
2023-05-01T22:29:30.066Z,11.48
2023-05-01T22:31:57.241Z,12.30
2023-05-01T22:34:24.050Z,12.10
2023-05-01T22:36:51.143Z,12.55
2023-05-01T22:39:17.889Z,11.10
2023-05-01T22:41:45.093Z,12.02
2023-05-01T22:44:11.814Z,11.93
2023-05-01T22:46:38.923Z,12.13
2023-05-01T22:49:05.716Z,12.82
2023-05-01T22:51:32.807Z,11.60
2023-05-01T22:53:59.509Z,12.00
2023-05-01T22:56:26.773Z,12.32
2023-05-01T22:58:55.479Z,12.82
2023-05-01T23:01:27.137Z,13.68
2023-05-01T23:03:54.213Z,13.00
2023-05-01T23:06:21.617Z,14.05
2023-05-01T23:08:52.609Z,13.48
2023-05-01T23:11:21.444Z,13.40
2023-05-01T23:13:49.892Z,14.40
2023-05-01T23:16:17.176Z,14.07
2023-05-01T23:18:44.133Z,14.52
2023-05-01T23:21:12.501Z,13.30
2023-05-01T23:23:43.152Z,13.80
2023-05-01T23:26:26.171Z,13.70
2023-05-01T23:28:53.264Z,14.57
2023-05-01T23:31:27.158Z,15.20
2023-05-01T23:33:54.946Z,14.43
2023-05-01T23:36:22.496Z,14.73
2023-05-01T23:38:49.736Z,13.88
2023-05-01T23:41:16.865Z,13.25
2023-05-01T23:43:46.334Z,13.43
2023-05-01T23:46:13.783Z,12.55
2023-05-01T23:48:40.635Z,13.93
2023-05-01T23:51:07.684Z,13.20
2023-05-01T23:53:34.429Z,14.88
2023-05-01T23:56:01.534Z,13.85
2023-05-01T23:58:28.291Z,14.00
